sensor_id;sensor_type;location;lat;lon;timestamp;temperature;humidity
1359;DHT22;673;48.098;14.422;2023-11-19T00:01:33;3.00;99.90
1359;DHT22;673;48.098;14.422;2023-11-19T00:04:01;3.00;99.90
1359;DHT22;673;48.098;14.422;2023-11-19T00:06:30;3.10;99.90
1359;DHT22;673;48.098;14.422;2023-11-19T00:08:57;3.10;99.90
1359;DHT22;673;48.098;14.422;2023-11-19T00:11:27;2.90;99.90
1359;DHT22;673;48.098;14.422;2023-11-19T00:13:54;2.90;99.90
1359;DHT22;673;48.098;14.422;2023-11-19T00:16:21;2.90;99.90
1359;DHT22;673;48.098;14.422;2023-11-19T00:18:48;2.90;99.90
1359;DHT22;673;48.098;14.422;2023-11-19T00:21:15;2.80;99.90
1359;DHT22;673;48.098;14.422;2023-11-19T00:23:42;2.90;99.90
1359;DHT22;673;48.098;14.422;2023-11-19T00:26:09;2.90;99.90
1359;DHT22;673;48.098;14.422;2023-11-19T00:28:38;3.00;99.90
1359;DHT22;673;48.098;14.422;2023-11-19T00:31:05;2.90;99.90
1359;DHT22;673;48.098;14.422;2023-11-19T00:33:32;2.70;99.90
1359;DHT22;673;48.098;14.422;2023-11-19T00:35:59;2.70;99.90
1359;DHT22;673;48.098;14.422;2023-11-19T00:38:26;2.80;99.90
1359;DHT22;673;48.098;14.422;2023-11-19T00:40:53;2.80;99.90
1359;DHT22;673;48.098;14.422;2023-11-19T00:43:20;2.70;99.90
1359;DHT22;673;48.098;14.422;2023-11-19T00:45:49;2.50;99.90
1359;DHT22;673;48.098;14.422;2023-11-19T00:48:16;2.40;99.90
1359;DHT22;673;48.098;14.422;2023-11-19T00:50:43;2.40;99.90
1359;DHT22;673;48.098;14.422;2023-11-19T00:53:11;2.40;99.90
1359;DHT22;673;48.098;14.422;2023-11-19T00:55:38;2.50;99.90
1359;DHT22;673;48.098;14.422;2023-11-19T00:58:05;2.50;99.90
1359;DHT22;673;48.098;14.422;2023-11-19T01:00:32;2.40;99.90
1359;DHT22;673;48.098;14.422;2023-11-19T01:03:02;2.40;99.90
1359;DHT22;673;48.098;14.422;2023-11-19T01:05:29;2.30;99.90
1359;DHT22;673;48.098;14.422;2023-11-19T01:07:55;2.30;99.90
1359;DHT22;673;48.098;14.422;2023-11-19T01:10:23;2.40;99.90
1359;DHT22;673;48.098;14.422;2023-11-19T01:12:50;2.30;99.90
1359;DHT22;673;48.098;14.422;2023-11-19T01:15:17;2.30;99.90
1359;DHT22;673;48.098;14.422;2023-11-19T01:17:45;2.40;99.90
1359;DHT22;673;48.098;14.422;2023-11-19T01:20:13;2.40;99.90
1359;DHT22;673;48.098;14.422;2023-11-19T01:22:41;2.50;99.90
1359;DHT22;673;48.098;14.422;2023-11-19T01:25:09;2.50;99.90
1359;DHT22;673;48.098;14.422;2023-11-19T01:27:36;2.60;99.90
1359;DHT22;673;48.098;14.422;2023-11-19T01:30:04;2.50;99.90
1359;DHT22;673;48.098;14.422;2023-11-19T01:32:31;2.50;99.90
1359;DHT22;673;48.098;14.422;2023-11-19T01:34:59;2.50;99.90
1359;DHT22;673;48.098;14.422;2023-11-19T01:37:28;2.60;99.90
1359;DHT22;673;48.098;14.422;2023-11-19T01:39:55;2.70;99.90
1359;DHT22;673;48.098;14.422;2023-11-19T01:42:23;2.60;99.90
1359;DHT22;673;48.098;14.422;2023-11-19T01:44:58;2.60;99.90
1359;DHT22;673;48.098;14.422;2023-11-19T01:47:26;2.60;99.90
1359;DHT22;673;48.098;14.422;2023-11-19T01:49:54;2.60;99.90
1359;DHT22;673;48.098;14.422;2023-11-19T01:52:23;2.60;99.90
1359;DHT22;673;48.098;14.422;2023-11-19T01:54:53;2.50;99.90
1359;DHT22;673;48.098;14.422;2023-11-19T01:57:22;2.40;99.90
1359;DHT22;673;48.098;14.422;2023-11-19T01:59:50;2.50;99.90
1359;DHT22;673;48.098;14.422;2023-11-19T02:02:17;2.40;99.90
1359;DHT22;673;48.098;14.422;2023-11-19T02:04:46;2.50;99.90
1359;DHT22;673;48.098;14.422;2023-11-19T02:07:14;2.50;99.90
1359;DHT22;673;48.098;14.422;2023-11-19T02:09:43;2.50;99.90
1359;DHT22;673;48.098;14.422;2023-11-19T02:12:11;2.50;99.90
1359;DHT22;673;48.098;14.422;2023-11-19T02:14:38;2.50;99.90
1359;DHT22;673;48.098;14.422;2023-11-19T02:17:06;2.40;99.90
1359;DHT22;673;48.098;14.422;2023-11-19T02:19:34;2.40;99.90
1359;DHT22;673;48.098;14.422;2023-11-19T02:22:01;2.40;99.90
1359;DHT22;673;48.098;14.422;2023-11-19T02:24:30;2.50;99.90
1359;DHT22;673;48.098;14.422;2023-11-19T02:27:02;2.40;99.90
1359;DHT22;673;48.098;14.422;2023-11-19T02:29:35;2.40;99.90
1359;DHT22;673;48.098;14.422;2023-11-19T02:32:02;2.40;99.90
1359;DHT22;673;48.098;14.422;2023-11-19T02:34:29;2.50;99.90
1359;DHT22;673;48.098;14.422;2023-11-19T02:36:56;2.50;99.90
1359;DHT22;673;48.098;14.422;2023-11-19T02:39:23;2.50;99.90
1359;DHT22;673;48.098;14.422;2023-11-19T02:41:50;2.50;99.90
1359;DHT22;673;48.098;14.422;2023-11-19T02:44:18;2.50;99.90
1359;DHT22;673;48.098;14.422;2023-11-19T02:46:47;2.40;99.90
1359;DHT22;673;48.098;14.422;2023-11-19T02:49:15;2.40;99.90
1359;DHT22;673;48.098;14.422;2023-11-19T02:51:42;2.40;99.90
1359;DHT22;673;48.098;14.422;2023-11-19T02:54:09;2.40;99.90
1359;DHT22;673;48.098;14.422;2023-11-19T02:56:36;2.40;99.90
1359;DHT22;673;48.098;14.422;2023-11-19T02:59:04;2.40;99.90
1359;DHT22;673;48.098;14.422;2023-11-19T03:01:40;2.40;99.90
1359;DHT22;673;48.098;14.422;2023-11-19T03:04:10;2.30;99.90
1359;DHT22;673;48.098;14.422;2023-11-19T03:06:42;2.40;99.90
1359;DHT22;673;48.098;14.422;2023-11-19T03:09:09;2.30;99.90
1359;DHT22;673;48.098;14.422;2023-11-19T03:11:36;2.40;99.90
1359;DHT22;673;48.098;14.422;2023-11-19T03:14:04;2.40;99.90
1359;DHT22;673;48.098;14.422;2023-11-19T03:16:31;2.40;99.90
1359;DHT22;673;48.098;14.422;2023-11-19T03:18:58;2.50;99.90
1359;DHT22;673;48.098;14.422;2023-11-19T03:21:29;2.50;99.90
1359;DHT22;673;48.098;14.422;2023-11-19T03:23:57;2.50;99.90
1359;DHT22;673;48.098;14.422;2023-11-19T03:26:26;2.50;99.90
1359;DHT22;673;48.098;14.422;2023-11-19T03:28:53;2.40;99.90
1359;DHT22;673;48.098;14.422;2023-11-19T03:31:20;2.50;99.90
1359;DHT22;673;48.098;14.422;2023-11-19T03:33:47;2.40;99.90
1359;DHT22;673;48.098;14.422;2023-11-19T03:36:13;2.40;99.90
1359;DHT22;673;48.098;14.422;2023-11-19T03:38:42;2.40;99.90
1359;DHT22;673;48.098;14.422;2023-11-19T03:41:12;2.50;99.90
1359;DHT22;673;48.098;14.422;2023-11-19T03:43:39;2.40;99.90
1359;DHT22;673;48.098;14.422;2023-11-19T03:46:16;2.30;99.90
1359;DHT22;673;48.098;14.422;2023-11-19T03:48:43;2.40;99.90
1359;DHT22;673;48.098;14.422;2023-11-19T03:51:11;2.30;99.90
1359;DHT22;673;48.098;14.422;2023-11-19T03:53:42;2.20;99.90
1359;DHT22;673;48.098;14.422;2023-11-19T03:56:09;2.30;99.90
1359;DHT22;673;48.098;14.422;2023-11-19T03:58:37;2.30;99.90
1359;DHT22;673;48.098;14.422;2023-11-19T04:01:05;2.40;99.90
1359;DHT22;673;48.098;14.422;2023-11-19T04:03:32;2.40;99.90
1359;DHT22;673;48.098;14.422;2023-11-19T04:05:59;2.40;99.90
1359;DHT22;673;48.098;14.422;2023-11-19T04:08:26;2.40;99.90
1359;DHT22;673;48.098;14.422;2023-11-19T04:10:54;2.40;99.90
1359;DHT22;673;48.098;14.422;2023-11-19T04:13:21;2.50;99.90
1359;DHT22;673;48.098;14.422;2023-11-19T04:15:50;2.60;99.90
1359;DHT22;673;48.098;14.422;2023-11-19T04:18:17;2.70;99.90
1359;DHT22;673;48.098;14.422;2023-11-19T04:20:44;2.70;99.90
1359;DHT22;673;48.098;14.422;2023-11-19T04:23:11;2.60;99.90
1359;DHT22;673;48.098;14.422;2023-11-19T04:25:38;2.60;99.90
1359;DHT22;673;48.098;14.422;2023-11-19T04:28:06;2.60;99.90
1359;DHT22;673;48.098;14.422;2023-11-19T04:30:34;2.60;99.90
1359;DHT22;673;48.098;14.422;2023-11-19T04:33:01;2.40;99.90
1359;DHT22;673;48.098;14.422;2023-11-19T04:35:28;2.50;99.90
1359;DHT22;673;48.098;14.422;2023-11-19T04:37:57;2.40;99.90
1359;DHT22;673;48.098;14.422;2023-11-19T04:40:24;2.40;99.90
1359;DHT22;673;48.098;14.422;2023-11-19T04:42:51;2.40;99.90
1359;DHT22;673;48.098;14.422;2023-11-19T04:45:20;2.40;99.90
1359;DHT22;673;48.098;14.422;2023-11-19T04:47:47;2.40;99.90
1359;DHT22;673;48.098;14.422;2023-11-19T04:50:14;2.30;99.90
1359;DHT22;673;48.098;14.422;2023-11-19T04:52:41;2.30;99.90
1359;DHT22;673;48.098;14.422;2023-11-19T04:55:11;2.30;99.90
1359;DHT22;673;48.098;14.422;2023-11-19T04:57:39;2.20;99.90
1359;DHT22;673;48.098;14.422;2023-11-19T05:00:07;2.20;99.90
1359;DHT22;673;48.098;14.422;2023-11-19T05:02:38;2.30;99.90
1359;DHT22;673;48.098;14.422;2023-11-19T05:05:05;2.30;99.90
1359;DHT22;673;48.098;14.422;2023-11-19T05:07:33;2.40;99.90
1359;DHT22;673;48.098;14.422;2023-11-19T05:09:59;2.40;99.90
1359;DHT22;673;48.098;14.422;2023-11-19T05:12:26;2.30;99.90
1359;DHT22;673;48.098;14.422;2023-11-19T05:14:53;2.30;99.90
1359;DHT22;673;48.098;14.422;2023-11-19T05:17:21;2.30;99.90
1359;DHT22;673;48.098;14.422;2023-11-19T05:19:49;2.20;99.90
1359;DHT22;673;48.098;14.422;2023-11-19T05:22:17;2.20;99.90
1359;DHT22;673;48.098;14.422;2023-11-19T05:24:44;2.20;99.90
1359;DHT22;673;48.098;14.422;2023-11-19T05:27:11;2.10;99.90
1359;DHT22;673;48.098;14.422;2023-11-19T05:29:39;2.20;99.90
1359;DHT22;673;48.098;14.422;2023-11-19T05:32:07;2.20;99.90
1359;DHT22;673;48.098;14.422;2023-11-19T05:34:33;2.20;99.90
1359;DHT22;673;48.098;14.422;2023-11-19T05:37:02;2.20;99.90
1359;DHT22;673;48.098;14.422;2023-11-19T05:39:31;2.10;99.90
1359;DHT22;673;48.098;14.422;2023-11-19T05:41:58;2.30;99.90
1359;DHT22;673;48.098;14.422;2023-11-19T05:44:25;2.30;99.90
1359;DHT22;673;48.098;14.422;2023-11-19T05:46:52;2.30;99.90
1359;DHT22;673;48.098;14.422;2023-11-19T05:49:19;2.20;99.90
1359;DHT22;673;48.098;14.422;2023-11-19T05:51:46;2.20;99.90
1359;DHT22;673;48.098;14.422;2023-11-19T05:54:14;2.10;99.90
1359;DHT22;673;48.098;14.422;2023-11-19T05:56:41;2.10;99.90
1359;DHT22;673;48.098;14.422;2023-11-19T05:59:08;2.20;99.90
1359;DHT22;673;48.098;14.422;2023-11-19T06:01:41;2.20;99.90
1359;DHT22;673;48.098;14.422;2023-11-19T06:04:08;2.20;99.90
1359;DHT22;673;48.098;14.422;2023-11-19T06:06:35;2.10;99.90
1359;DHT22;673;48.098;14.422;2023-11-19T06:09:02;2.10;99.90
1359;DHT22;673;48.098;14.422;2023-11-19T06:11:33;2.20;99.90
1359;DHT22;673;48.098;14.422;2023-11-19T06:14:01;2.30;99.90
1359;DHT22;673;48.098;14.422;2023-11-19T06:16:31;2.60;99.90
1359;DHT22;673;48.098;14.422;2023-11-19T06:18:58;2.70;99.90
1359;DHT22;673;48.098;14.422;2023-11-19T06:21:25;2.70;99.90
1359;DHT22;673;48.098;14.422;2023-11-19T06:23:52;2.60;99.90
1359;DHT22;673;48.098;14.422;2023-11-19T06:26:20;2.70;99.90
1359;DHT22;673;48.098;14.422;2023-11-19T06:28:49;2.60;99.90
1359;DHT22;673;48.098;14.422;2023-11-19T06:31:16;2.60;99.90
1359;DHT22;673;48.098;14.422;2023-11-19T06:33:43;2.70;99.90
1359;DHT22;673;48.098;14.422;2023-11-19T06:36:10;2.80;99.90
1359;DHT22;673;48.098;14.422;2023-11-19T06:38:37;2.90;99.90
1359;DHT22;673;48.098;14.422;2023-11-19T06:41:07;2.90;99.90
1359;DHT22;673;48.098;14.422;2023-11-19T06:43:35;3.00;99.90
1359;DHT22;673;48.098;14.422;2023-11-19T06:46:04;3.00;99.90
1359;DHT22;673;48.098;14.422;2023-11-19T06:48:31;2.90;99.90
1359;DHT22;673;48.098;14.422;2023-11-19T06:50:59;3.00;99.90
1359;DHT22;673;48.098;14.422;2023-11-19T06:53:26;3.00;99.90
1359;DHT22;673;48.098;14.422;2023-11-19T06:55:53;3.00;99.90
1359;DHT22;673;48.098;14.422;2023-11-19T06:58:20;3.00;99.90
1359;DHT22;673;48.098;14.422;2023-11-19T07:00:47;3.00;99.90
1359;DHT22;673;48.098;14.422;2023-11-19T07:03:18;3.00;99.90
1359;DHT22;673;48.098;14.422;2023-11-19T07:05:46;3.00;99.90
1359;DHT22;673;48.098;14.422;2023-11-19T07:08:13;3.00;99.90
1359;DHT22;673;48.098;14.422;2023-11-19T07:10:40;3.10;99.90
1359;DHT22;673;48.098;14.422;2023-11-19T07:13:07;3.00;99.90
1359;DHT22;673;48.098;14.422;2023-11-19T07:15:34;3.00;99.90
1359;DHT22;673;48.098;14.422;2023-11-19T07:18:01;3.00;99.90
1359;DHT22;673;48.098;14.422;2023-11-19T07:20:29;3.00;99.90
1359;DHT22;673;48.098;14.422;2023-11-19T07:22:56;3.00;99.90
1359;DHT22;673;48.098;14.422;2023-11-19T07:25:23;2.90;99.90
1359;DHT22;673;48.098;14.422;2023-11-19T07:27:51;2.90;99.90
1359;DHT22;673;48.098;14.422;2023-11-19T07:30:19;2.90;99.90
1359;DHT22;673;48.098;14.422;2023-11-19T07:32:46;2.90;99.90
1359;DHT22;673;48.098;14.422;2023-11-19T07:35:12;2.90;99.90
1359;DHT22;673;48.098;14.422;2023-11-19T07:37:42;3.00;99.90
1359;DHT22;673;48.098;14.422;2023-11-19T07:40:10;3.00;99.90
1359;DHT22;673;48.098;14.422;2023-11-19T07:42:38;3.10;99.90
1359;DHT22;673;48.098;14.422;2023-11-19T07:45:06;3.20;99.90
1359;DHT22;673;48.098;14.422;2023-11-19T07:47:33;3.30;99.90
1359;DHT22;673;48.098;14.422;2023-11-19T07:50:00;3.30;99.90
1359;DHT22;673;48.098;14.422;2023-11-19T07:52:27;3.50;99.90
1359;DHT22;673;48.098;14.422;2023-11-19T07:54:56;3.30;99.90
1359;DHT22;673;48.098;14.422;2023-11-19T07:57:23;3.20;99.90
1359;DHT22;673;48.098;14.422;2023-11-19T07:59:53;3.20;99.90
1359;DHT22;673;48.098;14.422;2023-11-19T08:02:20;3.20;99.90
1359;DHT22;673;48.098;14.422;2023-11-19T08:04:47;3.20;99.90
1359;DHT22;673;48.098;14.422;2023-11-19T08:07:17;3.20;99.90
1359;DHT22;673;48.098;14.422;2023-11-19T08:09:44;3.20;99.90
1359;DHT22;673;48.098;14.422;2023-11-19T08:12:13;3.20;99.90
1359;DHT22;673;48.098;14.422;2023-11-19T08:14:41;3.20;99.90
1359;DHT22;673;48.098;14.422;2023-11-19T08:17:09;3.20;99.90
1359;DHT22;673;48.098;14.422;2023-11-19T08:19:36;3.30;99.90
1359;DHT22;673;48.098;14.422;2023-11-19T08:22:03;3.30;99.90
1359;DHT22;673;48.098;14.422;2023-11-19T08:24:30;3.40;99.90
1359;DHT22;673;48.098;14.422;2023-11-19T08:26:57;3.30;99.90
1359;DHT22;673;48.098;14.422;2023-11-19T08:29:26;3.30;99.90
1359;DHT22;673;48.098;14.422;2023-11-19T08:31:53;3.50;99.90
1359;DHT22;673;48.098;14.422;2023-11-19T08:34:20;3.60;99.90
1359;DHT22;673;48.098;14.422;2023-11-19T08:36:50;3.50;99.90
1359;DHT22;673;48.098;14.422;2023-11-19T08:39:18;3.60;99.90
1359;DHT22;673;48.098;14.422;2023-11-19T08:41:46;3.60;99.90
1359;DHT22;673;48.098;14.422;2023-11-19T08:44:13;3.70;99.90
1359;DHT22;673;48.098;14.422;2023-11-19T08:46:47;3.70;99.90
1359;DHT22;673;48.098;14.422;2023-11-19T08:49:14;3.80;99.90
1359;DHT22;673;48.098;14.422;2023-11-19T08:51:41;3.90;99.90
1359;DHT22;673;48.098;14.422;2023-11-19T08:54:08;3.90;99.90
1359;DHT22;673;48.098;14.422;2023-11-19T08:56:36;3.90;99.90
1359;DHT22;673;48.098;14.422;2023-11-19T08:59:04;4.00;99.90
1359;DHT22;673;48.098;14.422;2023-11-19T09:01:31;4.10;99.90
1359;DHT22;673;48.098;14.422;2023-11-19T09:04:00;4.10;99.90
1359;DHT22;673;48.098;14.422;2023-11-19T09:06:27;4.10;99.90
1359;DHT22;673;48.098;14.422;2023-11-19T09:08:54;4.20;99.90
1359;DHT22;673;48.098;14.422;2023-11-19T09:11:26;4.30;99.90
1359;DHT22;673;48.098;14.422;2023-11-19T09:13:52;4.30;99.90
1359;DHT22;673;48.098;14.422;2023-11-19T09:16:19;4.30;99.90
1359;DHT22;673;48.098;14.422;2023-11-19T09:18:47;4.30;99.90
1359;DHT22;673;48.098;14.422;2023-11-19T09:21:15;4.30;99.90
1359;DHT22;673;48.098;14.422;2023-11-19T09:23:43;4.40;99.90
1359;DHT22;673;48.098;14.422;2023-11-19T09:26:10;4.50;99.90
1359;DHT22;673;48.098;14.422;2023-11-19T09:28:37;4.50;99.90
1359;DHT22;673;48.098;14.422;2023-11-19T09:31:13;4.60;99.90
1359;DHT22;673;48.098;14.422;2023-11-19T09:33:40;4.50;99.90
1359;DHT22;673;48.098;14.422;2023-11-19T09:36:07;4.50;99.90
1359;DHT22;673;48.098;14.422;2023-11-19T09:38:37;4.50;99.90
1359;DHT22;673;48.098;14.422;2023-11-19T09:41:05;4.50;99.90
1359;DHT22;673;48.098;14.422;2023-11-19T09:43:34;4.50;99.90
1359;DHT22;673;48.098;14.422;2023-11-19T09:46:05;4.40;99.90
1359;DHT22;673;48.098;14.422;2023-11-19T09:48:33;4.50;99.90
1359;DHT22;673;48.098;14.422;2023-11-19T09:51:03;4.50;99.90
1359;DHT22;673;48.098;14.422;2023-11-19T09:53:31;4.50;99.90
1359;DHT22;673;48.098;14.422;2023-11-19T09:56:00;4.50;99.90
1359;DHT22;673;48.098;14.422;2023-11-19T09:58:28;4.40;99.90
1359;DHT22;673;48.098;14.422;2023-11-19T10:00:56;4.20;99.90
1359;DHT22;673;48.098;14.422;2023-11-19T10:03:25;4.20;99.90
1359;DHT22;673;48.098;14.422;2023-11-19T10:05:54;4.00;99.90
1359;DHT22;673;48.098;14.422;2023-11-19T10:08:21;4.00;99.90
1359;DHT22;673;48.098;14.422;2023-11-19T10:10:49;4.00;99.90
1359;DHT22;673;48.098;14.422;2023-11-19T10:13:18;4.10;99.90
1359;DHT22;673;48.098;14.422;2023-11-19T10:15:47;4.10;99.90
1359;DHT22;673;48.098;14.422;2023-11-19T10:18:15;4.30;99.90
1359;DHT22;673;48.098;14.422;2023-11-19T10:20:43;4.50;99.90
1359;DHT22;673;48.098;14.422;2023-11-19T10:23:10;4.50;99.90
1359;DHT22;673;48.098;14.422;2023-11-19T10:25:37;4.70;99.90
1359;DHT22;673;48.098;14.422;2023-11-19T10:28:04;4.60;99.90
1359;DHT22;673;48.098;14.422;2023-11-19T10:30:32;4.50;99.90
1359;DHT22;673;48.098;14.422;2023-11-19T10:33:04;4.70;99.90
1359;DHT22;673;48.098;14.422;2023-11-19T10:35:32;4.70;99.90
1359;DHT22;673;48.098;14.422;2023-11-19T10:38:03;4.90;99.90
1359;DHT22;673;48.098;14.422;2023-11-19T10:40:40;4.90;99.90
1359;DHT22;673;48.098;14.422;2023-11-19T10:43:07;4.90;99.90
1359;DHT22;673;48.098;14.422;2023-11-19T10:45:36;5.00;99.90
1359;DHT22;673;48.098;14.422;2023-11-19T10:48:04;5.10;99.90
1359;DHT22;673;48.098;14.422;2023-11-19T10:50:33;5.20;99.90
1359;DHT22;673;48.098;14.422;2023-11-19T10:53:01;5.20;99.90
1359;DHT22;673;48.098;14.422;2023-11-19T10:55:31;5.40;99.90
1359;DHT22;673;48.098;14.422;2023-11-19T10:58:02;5.50;99.90
1359;DHT22;673;48.098;14.422;2023-11-19T11:00:30;5.30;99.90
1359;DHT22;673;48.098;14.422;2023-11-19T11:03:02;5.10;99.90
1359;DHT22;673;48.098;14.422;2023-11-19T11:05:32;5.10;99.90
1359;DHT22;673;48.098;14.422;2023-11-19T11:08:01;5.10;99.90
1359;DHT22;673;48.098;14.422;2023-11-19T11:10:31;4.90;99.90
1359;DHT22;673;48.098;14.422;2023-11-19T11:13:03;4.70;99.90
1359;DHT22;673;48.098;14.422;2023-11-19T11:15:30;4.70;99.90
1359;DHT22;673;48.098;14.422;2023-11-19T11:18:01;4.60;99.90
1359;DHT22;673;48.098;14.422;2023-11-19T11:20:30;4.70;99.90
1359;DHT22;673;48.098;14.422;2023-11-19T11:23:28;4.60;99.90
1359;DHT22;673;48.098;14.422;2023-11-19T11:26:15;4.50;99.90
1359;DHT22;673;48.098;14.422;2023-11-19T11:28:48;4.50;99.90
1359;DHT22;673;48.098;14.422;2023-11-19T11:31:29;4.60;99.90
1359;DHT22;673;48.098;14.422;2023-11-19T11:34:24;4.70;99.90
1359;DHT22;673;48.098;14.422;2023-11-19T11:37:03;4.70;99.90
1359;DHT22;673;48.098;14.422;2023-11-19T11:39:33;4.80;99.90
1359;DHT22;673;48.098;14.422;2023-11-19T11:42:30;4.70;99.90
1359;DHT22;673;48.098;14.422;2023-11-19T11:45:01;4.70;99.90
1359;DHT22;673;48.098;14.422;2023-11-19T11:50:34;5.30;99.90
1359;DHT22;673;48.098;14.422;2023-11-19T11:53:13;5.60;99.90
1359;DHT22;673;48.098;14.422;2023-11-19T11:55:56;5.90;99.90
1359;DHT22;673;48.098;14.422;2023-11-19T11:58:32;6.00;99.90
1359;DHT22;673;48.098;14.422;2023-11-19T12:01:01;6.10;99.90
1359;DHT22;673;48.098;14.422;2023-11-19T12:03:29;6.00;99.90
1359;DHT22;673;48.098;14.422;2023-11-19T12:05:58;6.20;99.90
1359;DHT22;673;48.098;14.422;2023-11-19T12:08:27;6.30;99.90
1359;DHT22;673;48.098;14.422;2023-11-19T12:10:56;6.40;99.90
1359;DHT22;673;48.098;14.422;2023-11-19T12:13:29;6.30;99.90
1359;DHT22;673;48.098;14.422;2023-11-19T12:16:09;6.40;99.90
1359;DHT22;673;48.098;14.422;2023-11-19T12:18:39;6.40;99.90
1359;DHT22;673;48.098;14.422;2023-11-19T12:21:08;6.40;99.90
1359;DHT22;673;48.098;14.422;2023-11-19T12:23:45;6.20;99.90
1359;DHT22;673;48.098;14.422;2023-11-19T12:26:34;6.00;99.90
1359;DHT22;673;48.098;14.422;2023-11-19T12:29:02;5.90;99.90
1359;DHT22;673;48.098;14.422;2023-11-19T12:31:32;6.00;99.90
1359;DHT22;673;48.098;14.422;2023-11-19T12:34:07;5.60;99.90
1359;DHT22;673;48.098;14.422;2023-11-19T12:36:39;5.60;99.90
1359;DHT22;673;48.098;14.422;2023-11-19T12:39:07;5.70;99.90
1359;DHT22;673;48.098;14.422;2023-11-19T12:41:49;5.80;99.90
1359;DHT22;673;48.098;14.422;2023-11-19T12:44:16;5.80;99.90
1359;DHT22;673;48.098;14.422;2023-11-19T12:46:43;5.70;99.90
1359;DHT22;673;48.098;14.422;2023-11-19T12:49:11;5.70;99.90
1359;DHT22;673;48.098;14.422;2023-11-19T12:51:40;5.50;99.90
1359;DHT22;673;48.098;14.422;2023-11-19T12:54:07;5.70;99.90
1359;DHT22;673;48.098;14.422;2023-11-19T12:56:34;5.70;99.90
1359;DHT22;673;48.098;14.422;2023-11-19T12:59:10;5.90;99.90
1359;DHT22;673;48.098;14.422;2023-11-19T13:01:38;6.10;99.90
1359;DHT22;673;48.098;14.422;2023-11-19T13:04:16;6.40;99.90
1359;DHT22;673;48.098;14.422;2023-11-19T13:06:46;6.40;99.90
1359;DHT22;673;48.098;14.422;2023-11-19T13:09:22;6.40;99.90
1359;DHT22;673;48.098;14.422;2023-11-19T13:11:49;6.20;99.90
1359;DHT22;673;48.098;14.422;2023-11-19T13:14:17;6.40;99.90
1359;DHT22;673;48.098;14.422;2023-11-19T13:16:44;6.60;99.90
1359;DHT22;673;48.098;14.422;2023-11-19T13:19:12;6.90;99.90
1359;DHT22;673;48.098;14.422;2023-11-19T13:21:40;7.00;99.90
1359;DHT22;673;48.098;14.422;2023-11-19T13:24:09;7.20;99.90
1359;DHT22;673;48.098;14.422;2023-11-19T13:26:36;7.20;99.90
1359;DHT22;673;48.098;14.422;2023-11-19T13:29:03;7.20;99.90
1359;DHT22;673;48.098;14.422;2023-11-19T13:31:31;7.30;99.90
1359;DHT22;673;48.098;14.422;2023-11-19T13:33:58;7.20;99.90
1359;DHT22;673;48.098;14.422;2023-11-19T13:36:25;6.70;99.90
1359;DHT22;673;48.098;14.422;2023-11-19T13:38:52;6.50;99.90
1359;DHT22;673;48.098;14.422;2023-11-19T13:41:25;6.40;99.90
1359;DHT22;673;48.098;14.422;2023-11-19T13:43:52;6.40;99.90
1359;DHT22;673;48.098;14.422;2023-11-19T13:46:20;6.40;99.90
1359;DHT22;673;48.098;14.422;2023-11-19T13:48:47;6.60;99.90
1359;DHT22;673;48.098;14.422;2023-11-19T13:51:16;6.60;99.90
1359;DHT22;673;48.098;14.422;2023-11-19T13:53:43;6.60;99.90
1359;DHT22;673;48.098;14.422;2023-11-19T13:56:10;6.60;99.90
1359;DHT22;673;48.098;14.422;2023-11-19T13:58:38;6.90;99.90
1359;DHT22;673;48.098;14.422;2023-11-19T14:01:06;6.70;99.90
1359;DHT22;673;48.098;14.422;2023-11-19T14:03:34;6.90;99.90
1359;DHT22;673;48.098;14.422;2023-11-19T14:06:00;7.10;99.90
1359;DHT22;673;48.098;14.422;2023-11-19T14:08:28;7.20;99.90
1359;DHT22;673;48.098;14.422;2023-11-19T14:10:55;7.10;99.90
1359;DHT22;673;48.098;14.422;2023-11-19T14:13:23;7.00;99.90
1359;DHT22;673;48.098;14.422;2023-11-19T14:15:52;6.80;99.90
1359;DHT22;673;48.098;14.422;2023-11-19T14:18:20;6.60;99.90
1359;DHT22;673;48.098;14.422;2023-11-19T14:20:46;6.60;99.90
1359;DHT22;673;48.098;14.422;2023-11-19T14:23:13;6.70;99.90
1359;DHT22;673;48.098;14.422;2023-11-19T14:25:40;6.80;99.90
1359;DHT22;673;48.098;14.422;2023-11-19T14:28:07;6.80;99.90
1359;DHT22;673;48.098;14.422;2023-11-19T14:30:34;6.80;99.90
1359;DHT22;673;48.098;14.422;2023-11-19T14:33:03;6.80;99.90
1359;DHT22;673;48.098;14.422;2023-11-19T14:35:30;6.80;99.90
1359;DHT22;673;48.098;14.422;2023-11-19T14:37:58;6.80;99.90
1359;DHT22;673;48.098;14.422;2023-11-19T14:40:25;6.80;99.90
1359;DHT22;673;48.098;14.422;2023-11-19T14:42:52;6.70;99.90
1359;DHT22;673;48.098;14.422;2023-11-19T14:45:19;6.50;99.90
1359;DHT22;673;48.098;14.422;2023-11-19T14:47:46;6.60;99.90
1359;DHT22;673;48.098;14.422;2023-11-19T14:50:14;6.80;99.90
1359;DHT22;673;48.098;14.422;2023-11-19T14:52:42;6.80;99.90
1359;DHT22;673;48.098;14.422;2023-11-19T14:55:09;6.70;99.90
1359;DHT22;673;48.098;14.422;2023-11-19T14:57:37;6.60;99.90
1359;DHT22;673;48.098;14.422;2023-11-19T15:00:08;6.60;99.90
1359;DHT22;673;48.098;14.422;2023-11-19T15:02:39;6.70;99.90
1359;DHT22;673;48.098;14.422;2023-11-19T15:05:07;6.70;99.90
1359;DHT22;673;48.098;14.422;2023-11-19T15:07:37;6.70;99.90
1359;DHT22;673;48.098;14.422;2023-11-19T15:10:06;6.60;99.90
1359;DHT22;673;48.098;14.422;2023-11-19T15:12:39;6.50;99.90
1359;DHT22;673;48.098;14.422;2023-11-19T15:15:08;6.40;99.90
1359;DHT22;673;48.098;14.422;2023-11-19T15:17:39;6.40;99.90
1359;DHT22;673;48.098;14.422;2023-11-19T15:20:07;6.20;99.90
1359;DHT22;673;48.098;14.422;2023-11-19T15:22:34;6.20;99.90
1359;DHT22;673;48.098;14.422;2023-11-19T15:25:03;6.10;99.90
1359;DHT22;673;48.098;14.422;2023-11-19T15:27:33;5.90;99.90
1359;DHT22;673;48.098;14.422;2023-11-19T15:30:00;5.70;99.90
1359;DHT22;673;48.098;14.422;2023-11-19T15:32:28;5.70;99.90
1359;DHT22;673;48.098;14.422;2023-11-19T15:34:57;5.50;99.90
1359;DHT22;673;48.098;14.422;2023-11-19T15:37:24;5.40;99.90
1359;DHT22;673;48.098;14.422;2023-11-19T15:39:51;5.40;99.90
1359;DHT22;673;48.098;14.422;2023-11-19T15:42:19;5.30;99.90
1359;DHT22;673;48.098;14.422;2023-11-19T15:44:46;5.20;99.90
1359;DHT22;673;48.098;14.422;2023-11-19T15:47:13;5.30;99.90
1359;DHT22;673;48.098;14.422;2023-11-19T15:49:41;5.30;99.90
1359;DHT22;673;48.098;14.422;2023-11-19T15:52:08;5.20;99.90
1359;DHT22;673;48.098;14.422;2023-11-19T15:54:35;5.20;99.90
1359;DHT22;673;48.098;14.422;2023-11-19T15:57:03;5.30;99.90
1359;DHT22;673;48.098;14.422;2023-11-19T15:59:31;5.40;99.90
1359;DHT22;673;48.098;14.422;2023-11-19T16:01:58;5.40;99.90
1359;DHT22;673;48.098;14.422;2023-11-19T16:04:25;5.50;99.90
1359;DHT22;673;48.098;14.422;2023-11-19T16:06:52;5.60;99.90
1359;DHT22;673;48.098;14.422;2023-11-19T16:09:19;5.60;99.90
1359;DHT22;673;48.098;14.422;2023-11-19T16:11:47;5.70;99.90
1359;DHT22;673;48.098;14.422;2023-11-19T16:14:14;5.70;99.90
1359;DHT22;673;48.098;14.422;2023-11-19T16:16:43;6.10;99.90
1359;DHT22;673;48.098;14.422;2023-11-19T16:19:10;6.50;99.90
1359;DHT22;673;48.098;14.422;2023-11-19T16:21:37;6.80;99.90
1359;DHT22;673;48.098;14.422;2023-11-19T16:24:05;6.80;99.90
1359;DHT22;673;48.098;14.422;2023-11-19T16:26:33;6.80;99.90
1359;DHT22;673;48.098;14.422;2023-11-19T16:29:02;6.80;99.90